createdAt,value
2023-12-14T00:01:24.617Z,6.90
2023-12-14T00:03:53.076Z,6.80
2023-12-14T00:06:20.460Z,6.80
2023-12-14T00:08:48.525Z,6.80
2023-12-14T00:11:15.744Z,6.80
2023-12-14T00:13:43.192Z,6.80
2023-12-14T00:16:10.390Z,6.80
2023-12-14T00:18:38.351Z,6.80
2023-12-14T00:21:08.369Z,6.80
2023-12-14T00:23:35.450Z,6.70
2023-12-14T00:26:02.827Z,6.70
2023-12-14T00:28:32.411Z,6.70
2023-12-14T00:31:01.794Z,6.70
2023-12-14T00:33:29.116Z,6.60
2023-12-14T00:35:56.893Z,6.60
2023-12-14T00:38:25.489Z,6.60
2023-12-14T00:40:52.954Z,6.60
2023-12-14T00:43:20.605Z,6.60
2023-12-14T00:45:47.817Z,6.60
2023-12-14T00:48:15.015Z,6.60
2023-12-14T00:50:42.441Z,6.60
2023-12-14T00:53:09.650Z,6.60
2023-12-14T00:55:38.399Z,6.60
2023-12-14T00:58:06.142Z,6.60
2023-12-14T01:00:33.427Z,6.60
2023-12-14T01:03:00.452Z,6.60
2023-12-14T01:05:27.560Z,6.60
2023-12-14T01:07:54.688Z,6.60
2023-12-14T01:10:22.529Z,6.60
2023-12-14T01:12:51.409Z,6.50
2023-12-14T01:15:18.639Z,6.50
2023-12-14T01:17:46.171Z,6.50
2023-12-14T01:20:13.791Z,6.50
2023-12-14T01:22:41.118Z,6.50
2023-12-14T01:25:08.835Z,6.50
2023-12-14T01:27:36.015Z,6.50
2023-12-14T01:30:05.046Z,6.50
2023-12-14T01:32:32.247Z,6.40
2023-12-14T01:34:59.569Z,6.40
2023-12-14T01:37:26.625Z,6.50
2023-12-14T01:39:53.611Z,6.40
2023-12-14T01:42:20.801Z,6.50
2023-12-14T01:44:47.960Z,6.40
2023-12-14T01:47:16.717Z,6.40
2023-12-14T01:49:43.848Z,6.50
2023-12-14T01:52:11.209Z,6.50
2023-12-14T01:54:38.542Z,6.50
2023-12-14T01:57:06.405Z,6.40
2023-12-14T01:59:33.498Z,6.40
2023-12-14T02:02:02.482Z,6.40
2023-12-14T02:04:31.875Z,6.40
2023-12-14T02:06:59.867Z,6.40
2023-12-14T02:09:26.892Z,6.50
2023-12-14T02:11:54.087Z,6.40
2023-12-14T02:14:24.710Z,6.40
2023-12-14T02:16:51.917Z,6.40
2023-12-14T02:19:19.601Z,6.40
2023-12-14T02:21:49.663Z,6.40
2023-12-14T02:24:18.369Z,6.40
2023-12-14T02:27:01.807Z,6.40
2023-12-14T02:29:31.201Z,6.40
2023-12-14T02:31:58.577Z,6.40
2023-12-14T02:34:29.065Z,6.50
2023-12-14T02:36:56.549Z,6.40
2023-12-14T02:39:25.252Z,6.40
2023-12-14T02:41:52.282Z,6.50
2023-12-14T02:44:19.679Z,6.40
2023-12-14T02:46:46.833Z,6.40
2023-12-14T02:49:14.221Z,6.40
2023-12-14T02:51:41.487Z,6.40
2023-12-14T02:54:08.729Z,6.40
2023-12-14T02:56:37.271Z,6.30
2023-12-14T02:59:04.494Z,6.30
2023-12-14T03:01:32.137Z,6.30
2023-12-14T03:03:59.531Z,6.40
2023-12-14T03:06:26.976Z,6.30
2023-12-14T03:08:54.088Z,6.30
2023-12-14T03:11:25.017Z,6.30
2023-12-14T03:13:53.759Z,6.30
2023-12-14T03:16:21.255Z,6.30
2023-12-14T03:18:53.570Z,6.30
2023-12-14T03:21:21.071Z,6.30
2023-12-14T03:23:48.148Z,6.30
2023-12-14T03:26:15.276Z,6.30
2023-12-14T03:28:42.562Z,6.30
2023-12-14T03:31:12.439Z,6.30
2023-12-14T03:33:40.194Z,6.30
2023-12-14T03:36:08.072Z,6.30
2023-12-14T03:38:35.630Z,6.30
2023-12-14T03:41:02.698Z,6.30
2023-12-14T03:43:30.105Z,6.30
2023-12-14T03:45:57.373Z,6.20
2023-12-14T03:48:25.918Z,6.20
2023-12-14T03:50:53.373Z,6.20
2023-12-14T03:53:20.926Z,6.20
2023-12-14T03:55:47.972Z,6.20
2023-12-14T03:58:15.416Z,6.10
2023-12-14T04:00:42.554Z,6.10
2023-12-14T04:03:09.915Z,6.10
2023-12-14T04:05:40.027Z,6.10
2023-12-14T04:08:07.686Z,6.10
2023-12-14T04:10:35.249Z,6.10
2023-12-14T04:13:02.372Z,6.10
2023-12-14T04:15:29.998Z,6.10
2023-12-14T04:17:57.101Z,6.10
2023-12-14T04:20:24.210Z,6.10
2023-12-14T04:22:54.026Z,6.00
2023-12-14T04:25:21.339Z,6.00
2023-12-14T04:27:48.490Z,6.00
2023-12-14T04:30:16.999Z,6.00
2023-12-14T04:32:44.157Z,6.00
2023-12-14T04:35:11.277Z,6.00
2023-12-14T04:37:38.766Z,6.00
2023-12-14T04:40:09.414Z,6.00
2023-12-14T04:42:37.222Z,6.00
2023-12-14T04:45:06.945Z,6.00
2023-12-14T04:47:34.165Z,6.00
2023-12-14T04:50:03.032Z,6.00
2023-12-14T04:52:30.153Z,6.00
2023-12-14T04:54:57.616Z,6.00
2023-12-14T04:57:26.330Z,6.00
2023-12-14T04:59:53.653Z,6.00
2023-12-14T05:02:21.150Z,6.00
2023-12-14T05:04:48.501Z,6.00
2023-12-14T05:07:16.712Z,6.00
2023-12-14T05:09:43.991Z,5.90
2023-12-14T05:12:11.117Z,6.00
2023-12-14T05:14:39.875Z,5.90
2023-12-14T05:17:07.129Z,5.90
2023-12-14T05:19:37.488Z,5.90
2023-12-14T05:22:05.142Z,5.90
2023-12-14T05:24:32.206Z,5.90
2023-12-14T05:26:59.426Z,5.90
2023-12-14T05:29:26.361Z,5.90
2023-12-14T05:31:55.398Z,5.90
2023-12-14T05:34:22.833Z,5.90
2023-12-14T05:36:49.906Z,5.90
2023-12-14T05:39:17.366Z,5.90
2023-12-14T05:41:45.157Z,5.90
2023-12-14T05:44:12.262Z,5.90
2023-12-14T05:46:39.885Z,5.90
2023-12-14T05:49:09.115Z,5.90
2023-12-14T05:51:36.510Z,5.80
2023-12-14T05:54:03.703Z,5.80
2023-12-14T05:56:32.198Z,5.90
2023-12-14T05:59:00.701Z,5.90
2023-12-14T06:01:28.897Z,5.80
2023-12-14T06:03:56.186Z,5.80
2023-12-14T06:06:25.118Z,5.80
2023-12-14T06:08:52.274Z,5.80
2023-12-14T06:11:19.417Z,5.80
2023-12-14T06:13:46.629Z,5.80
2023-12-14T06:16:14.112Z,5.80
2023-12-14T06:18:43.314Z,5.70
2023-12-14T06:21:12.512Z,5.70
2023-12-14T06:23:41.424Z,5.70
2023-12-14T06:26:08.746Z,5.70
2023-12-14T06:28:36.063Z,5.70
2023-12-14T06:31:03.244Z,5.70
2023-12-14T06:33:31.213Z,5.70
2023-12-14T06:35:58.821Z,5.70
2023-12-14T06:38:25.815Z,5.70
2023-12-14T06:40:54.776Z,5.70
2023-12-14T06:43:22.114Z,5.70
2023-12-14T06:45:49.173Z,5.70
2023-12-14T06:48:17.561Z,5.70
2023-12-14T06:50:47.329Z,5.70
2023-12-14T06:53:17.228Z,5.70
2023-12-14T06:55:44.472Z,5.60
2023-12-14T06:58:13.830Z,5.60
2023-12-14T07:00:40.991Z,5.70
2023-12-14T07:03:08.049Z,5.70
2023-12-14T07:05:36.379Z,5.60
2023-12-14T07:08:06.137Z,5.60
2023-12-14T07:10:33.778Z,5.60
2023-12-14T07:13:01.066Z,5.60
2023-12-14T07:15:29.740Z,5.60
2023-12-14T07:17:56.832Z,5.50
2023-12-14T07:20:24.099Z,5.50
2023-12-14T07:22:51.337Z,5.50
2023-12-14T07:25:18.449Z,5.50
2023-12-14T07:27:47.673Z,5.50
2023-12-14T07:30:15.900Z,5.50
2023-12-14T07:32:45.308Z,5.50
2023-12-14T07:35:12.502Z,5.50
2023-12-14T07:37:40.123Z,5.50
2023-12-14T07:40:09.242Z,5.40
2023-12-14T07:42:36.499Z,5.40
2023-12-14T07:45:04.484Z,5.40
2023-12-14T07:47:31.744Z,5.40
2023-12-14T07:50:00.805Z,5.40
2023-12-14T07:52:27.942Z,5.40
2023-12-14T07:54:54.952Z,5.40
2023-12-14T07:57:22.033Z,5.40
2023-12-14T07:59:49.198Z,5.40
2023-12-14T08:02:16.859Z,5.40
2023-12-14T08:04:44.495Z,5.40
2023-12-14T08:07:13.568Z,5.40
2023-12-14T08:09:40.682Z,5.40
2023-12-14T08:12:08.008Z,5.40
2023-12-14T08:14:35.444Z,5.40
2023-12-14T08:17:03.098Z,5.40
2023-12-14T08:19:31.199Z,5.40
2023-12-14T08:21:58.747Z,5.40
2023-12-14T08:24:27.445Z,5.40
2023-12-14T08:26:54.880Z,5.40
2023-12-14T08:29:22.067Z,5.40
2023-12-14T08:31:49.398Z,5.40
2023-12-14T08:34:16.533Z,5.50
2023-12-14T08:36:43.514Z,5.50
2023-12-14T08:39:10.526Z,5.50
2023-12-14T08:41:39.200Z,5.50
2023-12-14T08:44:06.544Z,5.50
2023-12-14T08:46:40.414Z,5.60
2023-12-14T08:49:07.597Z,5.60
2023-12-14T08:51:34.680Z,5.60
2023-12-14T08:54:02.020Z,5.60
2023-12-14T08:56:29.243Z,5.60
2023-12-14T08:58:58.654Z,5.60
2023-12-14T09:01:26.162Z,5.60
2023-12-14T09:03:53.489Z,5.60
2023-12-14T09:06:20.722Z,5.70
2023-12-14T09:08:48.045Z,5.70
2023-12-14T09:11:16.444Z,5.70
2023-12-14T09:13:43.661Z,5.70
2023-12-14T09:16:12.089Z,5.70
2023-12-14T09:18:39.751Z,5.80
2023-12-14T09:21:07.097Z,5.80
2023-12-14T09:23:34.141Z,5.80
2023-12-14T09:26:01.738Z,5.80
2023-12-14T09:28:28.795Z,5.90
2023-12-14T09:30:55.902Z,5.90
2023-12-14T09:33:24.557Z,6.00
2023-12-14T09:35:51.967Z,6.00
2023-12-14T09:38:20.574Z,6.30
2023-12-14T09:40:48.202Z,6.50
2023-12-14T09:43:16.087Z,6.70
2023-12-14T09:45:46.695Z,6.90
2023-12-14T09:48:14.506Z,7.10
2023-12-14T09:50:43.666Z,7.30
2023-12-14T09:53:11.054Z,7.40
2023-12-14T09:55:38.152Z,7.60
2023-12-14T09:58:07.660Z,7.70
2023-12-14T10:00:36.130Z,7.90
2023-12-14T10:03:22.574Z,8.00
2023-12-14T10:05:53.414Z,8.10
2023-12-14T10:08:21.071Z,8.20
2023-12-14T10:10:54.425Z,8.30
2023-12-14T10:13:22.915Z,8.40
2023-12-14T10:15:50.837Z,8.40
2023-12-14T10:18:24.145Z,8.40
2023-12-14T10:20:53.002Z,8.40
2023-12-14T10:23:20.249Z,8.30
2023-12-14T10:25:47.876Z,8.20
2023-12-14T10:28:15.116Z,8.20
2023-12-14T10:30:42.910Z,8.10
2023-12-14T10:33:10.583Z,8.10
2023-12-14T10:35:38.095Z,8.00
2023-12-14T10:38:07.990Z,8.00
2023-12-14T10:40:35.896Z,8.00
2023-12-14T10:43:06.712Z,8.00
2023-12-14T12:05:50.885Z,8.40
2023-12-14T12:08:21.073Z,8.40
2023-12-14T12:10:49.446Z,8.30
2023-12-14T12:13:17.932Z,8.20
2023-12-14T12:15:46.432Z,8.20
2023-12-14T12:18:15.108Z,8.20
2023-12-14T12:20:42.519Z,8.10
2023-12-14T12:23:13.463Z,8.00
2023-12-14T12:25:40.840Z,8.00
2023-12-14T12:28:09.647Z,8.00
2023-12-14T12:30:39.318Z,7.90
2023-12-14T12:33:08.945Z,7.80
2023-12-14T12:35:36.478Z,7.80
2023-12-14T12:38:04.596Z,7.80
2023-12-14T12:40:34.836Z,7.80
2023-12-14T12:43:02.398Z,7.70
2023-12-14T12:45:30.393Z,7.80
2023-12-14T12:47:57.783Z,7.70
2023-12-14T12:50:25.666Z,7.70
2023-12-14T12:52:52.932Z,7.70
2023-12-14T12:55:20.183Z,7.60
2023-12-14T12:57:50.087Z,7.60
2023-12-14T13:00:17.761Z,7.60
2023-12-14T13:02:47.449Z,7.60
2023-12-14T13:05:18.021Z,7.50
2023-12-14T13:07:46.879Z,7.50
2023-12-14T13:10:25.175Z,7.50
2023-12-14T13:12:58.086Z,7.50
2023-12-14T13:15:30.496Z,7.40
2023-12-14T13:17:58.622Z,7.40
2023-12-14T13:20:26.031Z,7.40
2023-12-14T13:22:54.360Z,7.30
2023-12-14T13:25:24.033Z,7.30
2023-12-14T13:27:51.376Z,7.20
2023-12-14T13:30:20.453Z,7.20
2023-12-14T13:32:47.776Z,7.20
2023-12-14T13:35:15.334Z,7.20
2023-12-14T13:37:42.825Z,7.20
2023-12-14T13:40:13.816Z,7.20
2023-12-14T13:42:50.791Z,7.20
2023-12-14T13:45:33.124Z,7.30
2023-12-14T13:48:01.032Z,7.30
2023-12-14T13:50:30.597Z,7.30
2023-12-14T13:52:57.928Z,7.30
2023-12-14T13:55:25.322Z,7.30
2023-12-14T13:57:52.554Z,7.30
2023-12-14T14:00:22.968Z,7.30
2023-12-14T14:02:51.546Z,7.20
2023-12-14T14:05:18.977Z,7.20
2023-12-14T14:07:46.872Z,7.20
2023-12-14T14:10:14.310Z,7.20
2023-12-14T14:12:41.433Z,7.20
2023-12-14T14:15:10.118Z,7.20
2023-12-14T14:17:37.230Z,7.10
2023-12-14T14:20:08.022Z,7.10
2023-12-14T14:22:35.368Z,7.10
2023-12-14T14:25:10.217Z,7.00
2023-12-14T14:27:37.635Z,7.00
2023-12-14T14:30:06.436Z,7.00
2023-12-14T14:32:34.317Z,7.00
2023-12-14T14:35:02.216Z,7.00
2023-12-14T14:37:30.847Z,7.00
2023-12-14T14:39:57.930Z,7.00
2023-12-14T14:42:25.088Z,7.00
2023-12-14T14:44:52.149Z,7.00
2023-12-14T14:47:19.337Z,6.90
2023-12-14T14:49:46.485Z,6.90
2023-12-14T14:52:13.552Z,6.90
2023-12-14T14:55:52.108Z,6.90
2023-12-14T14:57:30.356Z,6.90
2023-12-14T14:59:57.504Z,6.80
2023-12-14T15:02:24.928Z,6.80
2023-12-14T15:04:52.190Z,6.80
2023-12-14T15:07:19.583Z,6.80
2023-12-14T15:09:48.371Z,6.80
2023-12-14T15:12:15.423Z,6.80
2023-12-14T15:14:42.840Z,6.80
2023-12-14T15:17:09.902Z,6.80
2023-12-14T15:19:37.137Z,6.70
2023-12-14T15:22:06.879Z,6.70
2023-12-14T15:24:33.999Z,6.70
2023-12-14T15:27:07.155Z,6.70
2023-12-14T15:29:34.436Z,6.70
2023-12-14T15:32:01.733Z,6.70
2023-12-14T15:34:28.982Z,6.70
2023-12-14T15:36:56.017Z,6.70
2023-12-14T15:39:23.362Z,6.70
2023-12-14T15:41:50.368Z,6.70
2023-12-14T15:44:22.844Z,6.70
2023-12-14T15:46:50.059Z,6.70
2023-12-14T15:49:17.297Z,6.70
2023-12-14T15:51:45.235Z,6.70
2023-12-14T15:54:12.580Z,6.70
2023-12-14T15:56:39.735Z,6.70
2023-12-14T15:59:08.459Z,6.70
2023-12-14T16:01:38.183Z,6.60
2023-12-14T16:04:08.240Z,6.60
2023-12-14T16:06:35.465Z,6.70
2023-12-14T16:09:04.126Z,6.70
2023-12-14T16:11:31.192Z,6.70
2023-12-14T16:13:58.398Z,6.70
2023-12-14T16:16:25.776Z,6.70
2023-12-14T16:18:54.443Z,6.70
2023-12-14T16:21:21.556Z,6.70
2023-12-14T16:23:48.620Z,6.70
2023-12-14T16:26:16.182Z,6.60
2023-12-14T16:28:43.258Z,6.60
2023-12-14T16:31:10.725Z,6.70
2023-12-14T16:33:40.156Z,6.70
2023-12-14T16:36:47.412Z,6.70
2023-12-14T16:39:16.441Z,6.70
2023-12-14T16:41:43.530Z,6.70
2023-12-14T16:44:11.219Z,6.70
2023-12-14T16:46:38.374Z,6.70
2023-12-14T16:49:05.537Z,6.70
2023-12-14T16:51:34.607Z,6.70
2023-12-14T16:54:04.186Z,6.70
2023-12-14T16:56:34.162Z,6.70
2023-12-14T16:59:01.577Z,6.70
2023-12-14T17:01:28.979Z,6.70
2023-12-14T17:03:56.258Z,6.60
2023-12-14T17:06:24.300Z,6.60
2023-12-14T17:08:54.530Z,6.70
2023-12-14T17:11:22.407Z,6.70
2023-12-14T17:13:51.279Z,6.70
2023-12-14T17:16:20.088Z,6.70
2023-12-14T17:18:48.227Z,6.70
2023-12-14T17:21:19.335Z,6.70
2023-12-14T17:23:47.058Z,6.60
2023-12-14T17:26:14.842Z,6.60
2023-12-14T17:28:44.776Z,6.60
2023-12-14T17:31:14.054Z,6.60
2023-12-14T17:33:41.679Z,6.60
2023-12-14T17:36:09.482Z,6.60
2023-12-14T17:38:36.723Z,6.60
2023-12-14T17:41:06.607Z,6.60
2023-12-14T17:43:35.758Z,6.60
2023-12-14T17:46:03.311Z,6.60
2023-12-14T17:48:32.799Z,6.60
2023-12-14T17:51:01.488Z,6.50
2023-12-14T17:53:28.773Z,6.50
2023-12-14T17:55:57.661Z,6.50
2023-12-14T17:58:25.446Z,6.50
2023-12-14T18:00:52.629Z,6.60
2023-12-14T18:03:19.872Z,6.50
2023-12-14T18:05:48.522Z,6.50
2023-12-14T18:08:16.070Z,6.60
2023-12-14T18:10:43.453Z,6.50
2023-12-14T18:13:10.525Z,6.50
2023-12-14T18:15:37.637Z,6.60
2023-12-14T18:18:04.933Z,6.60
2023-12-14T18:20:32.229Z,6.60
2023-12-14T18:23:01.003Z,6.60
2023-12-14T18:25:28.179Z,6.60
2023-12-14T18:28:00.335Z,6.60
2023-12-14T18:30:27.556Z,6.60
2023-12-14T18:32:54.891Z,6.60
2023-12-14T18:35:22.000Z,6.60
2023-12-14T18:37:51.173Z,6.60
2023-12-14T18:40:23.384Z,6.70
2023-12-14T18:42:50.541Z,6.70
2023-12-14T18:45:17.559Z,6.60
2023-12-14T18:47:44.772Z,6.70
2023-12-14T18:50:12.104Z,6.70
2023-12-14T18:52:39.346Z,6.70
2023-12-14T18:55:07.580Z,6.70
2023-12-14T18:57:36.185Z,6.60
2023-12-14T19:00:04.678Z,6.70
2023-12-14T19:02:32.554Z,6.70
2023-12-14T19:04:59.994Z,6.70
2023-12-14T19:07:27.071Z,6.70
2023-12-14T19:09:55.213Z,6.70
2023-12-14T19:12:23.094Z,6.70
2023-12-14T19:14:51.555Z,6.70
2023-12-14T19:17:18.767Z,6.70
2023-12-14T19:19:45.963Z,6.70
2023-12-14T19:22:13.142Z,6.70
2023-12-14T19:24:40.359Z,6.70
2023-12-14T19:27:07.543Z,6.70
2023-12-14T19:29:34.713Z,6.70
2023-12-14T19:32:03.591Z,6.70
2023-12-14T19:34:30.668Z,6.70
2023-12-14T19:36:58.058Z,6.70
2023-12-14T19:39:25.871Z,6.70
2023-12-14T19:41:53.194Z,6.70
2023-12-14T19:44:20.903Z,6.70
2023-12-14T19:46:48.139Z,6.70
2023-12-14T19:49:16.679Z,6.70
2023-12-14T19:51:44.017Z,6.70
2023-12-14T19:54:11.106Z,6.70
2023-12-14T19:56:38.164Z,6.70
2023-12-14T19:59:05.276Z,6.70
2023-12-14T20:01:32.858Z,6.70
2023-12-14T20:04:00.784Z,6.80
2023-12-14T20:06:29.562Z,6.80
2023-12-14T20:08:57.008Z,6.80
2023-12-14T20:11:24.359Z,6.80
2023-12-14T20:13:51.476Z,6.80
2023-12-14T20:16:18.889Z,6.80
2023-12-14T20:18:46.338Z,6.80
2023-12-14T20:21:13.676Z,6.80
2023-12-14T20:23:42.245Z,6.80
2023-12-14T20:26:10.473Z,6.80
2023-12-14T20:28:37.812Z,6.80
2023-12-14T20:31:05.828Z,6.80
2023-12-14T20:33:33.413Z,6.90
2023-12-14T20:36:00.892Z,6.90
2023-12-14T20:38:28.275Z,6.80
2023-12-14T20:40:59.234Z,6.80
2023-12-14T20:43:26.595Z,6.90
2023-12-14T20:45:53.943Z,6.90
2023-12-14T20:48:21.555Z,6.90
2023-12-14T20:50:49.040Z,6.90
2023-12-14T20:53:16.274Z,6.90
2023-12-14T20:55:43.493Z,6.90
2023-12-14T20:58:13.968Z,6.90
2023-12-14T21:00:41.254Z,6.90
2023-12-14T21:03:08.757Z,6.90
2023-12-14T21:05:43.226Z,6.90
2023-12-14T21:08:15.529Z,6.90
2023-12-14T21:10:42.715Z,6.90
2023-12-14T21:13:11.622Z,6.90
2023-12-14T21:15:38.915Z,6.90
2023-12-14T21:18:06.674Z,6.90
2023-12-14T21:20:34.116Z,6.90
2023-12-14T21:23:01.653Z,6.90
2023-12-14T21:25:39.141Z,6.90
2023-12-14T21:28:06.852Z,6.90
2023-12-14T21:30:36.037Z,6.90
2023-12-14T21:33:05.012Z,6.90
2023-12-14T21:35:32.576Z,6.90
2023-12-14T21:37:59.941Z,6.90
2023-12-14T21:40:27.031Z,6.90
2023-12-14T21:42:54.279Z,6.90
2023-12-14T21:45:21.625Z,6.90
2023-12-14T21:47:50.285Z,6.90
2023-12-14T21:50:17.802Z,6.90
2023-12-14T21:52:45.125Z,6.90
2023-12-14T21:55:12.293Z,6.90
2023-12-14T21:57:39.754Z,7.00
2023-12-14T22:00:08.787Z,7.00
2023-12-14T22:02:36.267Z,7.00
2023-12-14T22:05:06.250Z,7.00
2023-12-14T22:07:34.293Z,7.00
2023-12-14T22:10:06.718Z,7.00
2023-12-14T22:12:33.990Z,7.00
2023-12-14T22:15:01.766Z,7.00
2023-12-14T22:17:29.108Z,7.00
2023-12-14T22:19:56.313Z,7.10
2023-12-14T22:22:24.864Z,7.10
2023-12-14T22:24:52.127Z,7.10
2023-12-14T22:27:20.505Z,7.10
2023-12-14T22:29:47.769Z,7.10
2023-12-14T22:32:14.966Z,7.10
2023-12-14T22:34:42.415Z,7.20
2023-12-14T22:37:09.513Z,7.20
2023-12-14T22:39:38.053Z,7.20
2023-12-14T22:42:09.120Z,7.20
2023-12-14T22:44:37.384Z,7.20
2023-12-14T22:47:06.288Z,7.20
2023-12-14T22:49:33.572Z,7.20
2023-12-14T22:52:03.310Z,7.20
2023-12-14T22:54:30.655Z,7.20
2023-12-14T22:56:59.499Z,7.20
2023-12-14T22:59:29.104Z,7.20
2023-12-14T23:01:56.545Z,7.20
2023-12-14T23:04:23.571Z,7.20
2023-12-14T23:06:50.671Z,7.20
2023-12-14T23:09:18.698Z,7.20
2023-12-14T23:11:49.305Z,7.20
2023-12-14T23:14:18.059Z,7.20
2023-12-14T23:16:45.889Z,7.20
2023-12-14T23:19:13.352Z,7.20
2023-12-14T23:21:40.544Z,7.20
2023-12-14T23:24:08.208Z,7.20
2023-12-14T23:26:35.312Z,7.20
2023-12-14T23:29:02.858Z,7.20
2023-12-14T23:31:31.434Z,7.10
2023-12-14T23:33:58.603Z,7.20
2023-12-14T23:36:26.581Z,7.20
2023-12-14T23:38:53.709Z,7.20
2023-12-14T23:41:20.996Z,7.20
2023-12-14T23:43:48.164Z,7.20
2023-12-14T23:46:15.407Z,7.20
2023-12-14T23:48:45.055Z,7.20
2023-12-14T23:51:12.532Z,7.20
2023-12-14T23:53:39.590Z,7.20
2023-12-14T23:56:07.984Z,7.20
2023-12-14T23:58:35.286Z,7.20
